Airfield :
LOGIN :

Register | Disclaimer

   EN    FR    IT 

 










Legend :    VFR   Marginal VFR   IFR   Intensive IFR   Very Intensive IFR
Visi :
Ceiling :
>= 8 km
>= 3000ft
5 to 8 km
1000 to 3000 ft
1500m to 5 km
500 to 1000 ft
800 to 1500m
200 to 500 ft
< 800m
< 200 ft
Symbols :   Thunderstorms  Fog  Heavy snow  Heavy precipitations  Wind > 20 kt
SIGMETs :     Misc.  Thunderstorms  Icing  Turbulence  Mountain Waves  Volcanic Ashes







- Airport Elevation : 65 ft
- IATA code : PMO


LICJ - Palermo Punta Raisi

CURRENT METAR :
  • 262350Z 05007KT 010V070 CAVOK 25/23 Q1017

EXPIRED METARs :
  • 262320Z 09005KT 060V120 CAVOK 25/19 Q1018
  • 262250Z 04010KT CAVOK 25/22 Q1018
  • 262220Z 06006KT 040V100 CAVOK 26/18 Q1018
  • 262150Z 08008KT 050V110 CAVOK 28/15 Q1018
  • 262120Z 04006KT CAVOK 26/21 Q1018

TAF TAF LICJ
Valid from the 27 at 00:00 until the 28 at 00:00 UTC


262300Z 2700/2724 VRB05KT CAVOK
BECMG 2708/2710 05013KT
BECMG 2718/2720 VRB05KT
No reported NOTAMs for that airfield.



MET'MAP, your aeronautical weather chart ! - Copyright ORBIFLY December 2007 - Disclaimer

ORBIFLY MET'MAP TEAM :

Programming & Development : Alexandra Zaïnal
Concept & Development : Baudouin d'Aumeries
Co-Development & Prog : Marc-Olivier Méhu
Technical & hardware support : Manuel Goepfert

Contact : metmap@orbifly.com




SOURCES & CREDITS :

   NOAA